Time;durP1;ratioP1;P1;durP2;ratioP2;P2;SDS_P1;SDS_P2;PMS_P1;PMS_P2;Temp;Humidity;BMP_temperature;BMP_pressure;BME280_temperature;BME280_humidity;BME280_pressure;Samples;Min_cycle;Max_cycle;Signal;HPM_P1;HPM_P2
2021/10/07 00:01:38;;;;;;;0.70;0.70;;;;;;;12.14;100.00;99927.59;4992877;28;20070;-82
2021/10/07 00:04:05;;;;;;;2.03;0.90;;;;;;;12.17;100.00;99927.41;4992400;28;20057;-82
2021/10/07 00:06:32;;;;;;;1.00;1.00;;;;;;;12.10;100.00;99923.50;4992933;28;20046;-80
2021/10/07 00:08:58;;;;;;;0.98;0.90;;;;;;;12.09;100.00;99919.19;4992471;28;20035;-81
2021/10/07 00:11:25;;;;;;;1.20;0.90;;;;;;;12.09;100.00;99930.50;4993024;28;20042;-81
2021/10/07 00:13:52;;;;;;;2.45;1.00;;;;;;;12.10;100.00;99924.34;4992743;28;20520;-81
2021/10/07 00:16:19;;;;;;;0.95;0.80;;;;;;;12.10;100.00;99923.50;4973334;28;20074;-81
2021/10/07 00:18:48;;;;;;;1.00;0.80;;;;;;;12.09;100.00;99919.19;4989057;28;20038;-81
2021/10/07 00:21:19;;;;;;;1.50;0.90;;;;;;;12.06;100.00;99915.00;4992724;28;20038;-81
2021/10/07 00:26:19;;;;;;;4.47;0.70;;;;;;;12.00;100.00;99904.94;4995149;28;20141;-81
2021/10/07 00:28:46;;;;;;;1.40;0.90;;;;;;;12.10;100.00;99900.81;4996414;28;20034;-81
2021/10/07 00:31:20;;;;;;;1.00;0.90;;;;;;;12.05;100.00;99903.72;4996093;28;20043;-81
2021/10/07 00:39:14;;;;;;;0.60;0.60;;;;;;;12.18;100.00;99897.72;4996283;28;20039;-81
2021/10/07 00:41:42;;;;;;;1.38;0.60;;;;;;;12.23;100.00;99896.50;4995951;28;20100;-79
2021/10/07 00:44:11;;;;;;;0.50;0.50;;;;;;;12.22;100.00;99894.00;4996295;28;20486;-79
2021/10/07 00:46:52;;;;;;;2.88;0.70;;;;;;;11.91;100.00;99889.81;4996046;28;20042;-83
2021/10/07 00:49:21;;;;;;;1.17;0.50;;;;;;;12.03;100.00;99895.13;4996493;28;20093;-80
2021/10/07 00:51:49;;;;;;;0.50;0.50;;;;;;;12.03;100.00;99884.66;4995799;28;20042;-81
2021/10/07 00:54:20;;;;;;;0.63;0.63;;;;;;;12.07;100.00;99893.16;4995749;28;20101;-81
2021/10/07 00:56:48;;;;;;;2.42;1.08;;;;;;;12.07;100.00;99896.59;4995864;28;20051;-81
2021/10/07 00:59:15;;;;;;;1.13;1.02;;;;;;;12.07;100.00;99895.78;4995543;28;20061;-81
2021/10/07 01:01:42;;;;;;;0.70;0.70;;;;;;;12.09;100.00;99903.50;4995784;28;20042;-83
2021/10/07 01:04:09;;;;;;;0.50;0.50;;;;;;;12.05;100.00;99908.94;4994929;28;20038;-80
2021/10/07 01:06:37;;;;;;;1.90;0.93;;;;;;;11.90;100.00;99912.47;4993478;28;20043;-81
2021/10/07 01:09:05;;;;;;;0.98;0.68;;;;;;;11.95;100.00;99913.03;4994491;28;20050;-80
2021/10/07 01:11:32;;;;;;;3.03;0.60;;;;;;;11.85;100.00;99917.16;4995188;28;20409;-80
2021/10/07 01:13:59;;;;;;;0.88;0.60;;;;;;;11.66;100.00;99922.59;4995341;28;20073;-81
2021/10/07 01:16:26;;;;;;;3.00;0.70;;;;;;;11.77;100.00;99908.88;4994634;28;20548;-80
2021/10/07 01:18:54;;;;;;;0.40;0.40;;;;;;;11.82;100.00;99912.09;4995165;28;20564;-80
2021/10/07 01:21:21;;;;;;;0.50;0.50;;;;;;;11.90;100.00;99914.25;4995268;28;20054;-79
2021/10/07 01:23:49;;;;;;;0.50;0.50;;;;;;;11.93;100.00;99914.06;4995584;28;20046;-80
2021/10/07 01:26:19;;;;;;;0.60;0.50;;;;;;;11.90;100.00;99915.09;4994703;28;20093;-81
2021/10/07 01:28:49;;;;;;;0.50;0.50;;;;;;;12.04;100.00;99912.50;4995038;28;20046;-80
2021/10/07 01:31:16;;;;;;;0.60;0.60;;;;;;;11.87;100.00;99912.66;4995108;28;20441;-81
2021/10/07 01:33:44;;;;;;;0.50;0.50;;;;;;;11.82;100.00;99912.09;4995223;28;20074;-81
2021/10/07 01:36:11;;;;;;;0.68;0.68;;;;;;;12.02;100.00;99918.72;4995004;28;20042;-81
2021/10/07 01:38:37;;;;;;;1.58;0.70;;;;;;;12.00;100.00;99902.31;4994614;28;20069;-80
2021/10/07 01:41:04;;;;;;;0.95;0.90;;;;;;;12.06;100.00;99915.84;4994694;28;20413;-84
2021/10/07 01:43:31;;;;;;;0.93;0.60;;;;;;;12.05;100.00;99923.78;4994788;28;20042;-82
2021/10/07 01:45:58;;;;;;;1.15;0.70;;;;;;;12.07;100.00;99916.69;4994910;28;20046;-82
2021/10/07 01:48:24;;;;;;;0.60;0.60;;;;;;;12.05;100.00;99908.09;4993727;28;20042;-82
2021/10/07 01:50:51;;;;;;;1.05;0.70;;;;;;;12.03;100.00;99908.19;4995318;28;20556;-82
2021/10/07 01:53:18;;;;;;;3.20;0.70;;;;;;;11.91;100.00;99906.31;4994381;28;20105;-83
2021/10/07 01:55:45;;;;;;;0.95;0.80;;;;;;;12.00;100.00;99910.16;4994914;28;20409;-83
2021/10/07 01:58:11;;;;;;;1.90;0.63;;;;;;;12.08;100.00;99907.91;4994319;28;20089;-83
2021/10/07 02:00:38;;;;;;;2.33;0.60;;;;;;;12.14;100.00;99909.28;4994178;28;20401;-82
2021/10/07 02:03:05;;;;;;;0.60;0.60;;;;;;;12.11;100.00;99906.88;4994737;28;20085;-82
2021/10/07 02:05:32;;;;;;;2.70;0.85;;;;;;;11.99;100.00;99913.72;4994220;28;20429;-82
2021/10/07 02:07:58;;;;;;;2.53;0.60;;;;;;;11.97;100.00;99910.31;4994652;28;20129;-82
2021/10/07 02:10:26;;;;;;;0.60;0.60;;;;;;;12.16;100.00;99904.84;4994177;28;20034;-83
2021/10/07 02:12:53;;;;;;;3.20;0.90;;;;;;;12.15;100.00;99906.59;4994633;28;20073;-83
2021/10/07 02:15:19;;;;;;;1.48;0.60;;;;;;;11.94;100.00;99905.31;4994040;28;20449;-83
2021/10/07 02:17:47;;;;;;;4.82;0.70;;;;;;;11.99;100.00;99898.88;4994761;28;20097;-83
2021/10/07 02:20:14;;;;;;;0.57;0.57;;;;;;;12.06;100.00;99897.56;4994294;28;20405;-82
2021/10/07 02:22:41;;;;;;;0.82;0.60;;;;;;;12.03;100.00;99902.94;4994354;28;20038;-83
2021/10/07 02:25:08;;;;;;;0.70;0.70;;;;;;;12.06;100.00;99902.78;4994520;28;20050;-83
2021/10/07 02:27:35;;;;;;;1.77;0.68;;;;;;;12.17;100.00;99909.94;4994085;28;20042;-82
2021/10/07 02:30:06;;;;;;;0.50;0.50;;;;;;;12.17;100.00;99907.34;4994450;28;20402;-83
2021/10/07 02:32:33;;;;;;;1.92;0.65;;;;;;;12.14;100.00;99906.69;4993687;28;20042;-83
2021/10/07 02:35:00;;;;;;;0.93;0.93;;;;;;;12.03;100.00;99913.41;4994013;28;20472;-82
2021/10/07 02:37:27;;;;;;;2.15;0.50;;;;;;;12.09;100.00;99911.34;4993857;28;20043;-81
2021/10/07 02:39:54;;;;;;;0.60;0.60;;;;;;;12.14;100.00;99904.06;4994413;28;20097;-83
2021/10/07 02:42:20;;;;;;;2.80;0.80;;;;;;;12.17;100.00;99896.06;4993625;28;20046;-81
2021/10/07 02:44:47;;;;;;;2.38;0.70;;;;;;;12.23;100.00;99890.44;4994172;28;20042;-83
2021/10/07 02:47:14;;;;;;;0.55;0.55;;;;;;;12.17;100.00;99885.59;4993983;28;20054;-82
2021/10/07 02:49:40;;;;;;;0.70;0.70;;;;;;;12.25;100.00;99878.09;4992427;28;20050;-83
2021/10/07 02:52:07;;;;;;;0.60;0.60;;;;;;;12.21;100.00;99887.94;4993868;28;20048;-83
2021/10/07 02:54:34;;;;;;;0.65;0.60;;;;;;;11.92;100.00;99879.25;4993530;28;20042;-83
2021/10/07 02:57:01;;;;;;;0.57;0.55;;;;;;;12.12;100.00;99875.44;4975763;28;20050;-83
2021/10/07 02:59:28;;;;;;;2.03;1.10;;;;;;;12.08;100.00;99876.53;4984843;28;20046;-82
2021/10/07 03:01:54;;;;;;;0.80;0.80;;;;;;;12.06;100.00;99881.03;4992905;28;20066;-82
2021/10/07 03:04:22;;;;;;;0.55;0.55;;;;;;;11.99;100.00;99877.13;4992709;28;20039;-82
2021/10/07 03:06:50;;;;;;;5.43;0.60;;;;;;;11.92;100.00;99862.75;4993288;28;20150;-80
2021/10/07 03:09:17;;;;;;;0.90;0.60;;;;;;;12.09;100.00;99866.94;4993307;28;20050;-81
2021/10/07 03:11:44;;;;;;;0.50;0.50;;;;;;;12.00;100.00;99866.59;4993160;28;20046;-81
2021/10/07 03:14:11;;;;;;;0.68;0.50;;;;;;;12.05;100.00;99861.09;4993122;28;20429;-82
2021/10/07 03:16:37;;;;;;;1.48;0.75;;;;;;;11.94;100.00;99858.28;4991714;28;20046;-82
2021/10/07 03:19:04;;;;;;;2.65;0.75;;;;;;;11.83;100.00;99858.97;4993328;28;20133;-82
2021/10/07 03:21:31;;;;;;;0.57;0.57;;;;;;;12.01;100.00;99854.34;4993232;28;20038;-82
2021/10/07 03:23:58;;;;;;;0.82;0.73;;;;;;;11.89;100.00;99850.75;4993817;28;20034;-82
2021/10/07 03:26:25;;;;;;;0.73;0.60;;;;;;;11.90;100.00;99847.19;5009771;23;20104;-90
2021/10/07 03:28:51;;;;;;;0.68;0.65;;;;;;;11.91;100.00;99848.84;4996324;28;20050;-92
2021/10/07 03:31:18;;;;;;;0.70;0.70;;;;;;;12.15;99.95;99856.97;4993570;28;20050;-90
2021/10/07 03:33:45;;;;;;;0.90;0.90;;;;;;;12.18;99.71;99851.53;4993387;28;20066;-91
2021/10/07 03:36:12;;;;;;;0.50;0.50;;;;;;;12.22;99.01;99853.00;4992268;28;20042;-93
2021/10/07 03:38:39;;;;;;;0.60;0.60;;;;;;;12.34;98.08;99851.41;4992745;28;20038;-92
2021/10/07 03:41:06;;;;;;;0.63;0.63;;;;;;;12.35;96.61;99850.44;4993439;28;20477;-89
2021/10/07 03:43:32;;;;;;;0.60;0.60;;;;;;;12.43;95.24;99852.59;4973923;28;20118;-89
2021/10/07 03:45:59;;;;;;;0.60;0.60;;;;;;;12.48;95.90;99853.97;4992550;28;20078;-90
2021/10/07 03:48:26;;;;;;;0.70;0.70;;;;;;;12.39;97.70;99859.78;4992863;28;20389;-89
2021/10/07 03:50:54;;;;;;;0.47;0.47;;;;;;;12.29;100.00;99853.47;4993756;28;20113;-94
2021/10/07 03:53:22;;;;;;;0.60;0.60;;;;;;;12.18;100.00;99850.69;4993765;28;20043;-93
2021/10/07 03:55:49;;;;;;;0.60;0.60;;;;;;;12.17;100.00;99855.06;4993354;28;20053;-94
2021/10/07 03:58:15;;;;;;;0.93;0.60;;;;;;;12.17;100.00;99851.63;4994296;28;20097;-92
2021/10/07 04:00:42;;;;;;;1.08;0.70;;;;;;;12.21;100.00;99845.28;4995703;28;20122;-93
2021/10/07 04:03:09;;;;;;;0.93;0.60;;;;;;;12.32;100.00;99842.81;4998356;28;20393;-95
2021/10/07 04:05:39;;;;;;;0.50;0.50;;;;;;;12.24;100.00;99851.13;4996102;28;20057;-95
2021/10/07 04:08:05;;;;;;;2.78;0.60;;;;;;;12.43;97.09;99842.13;4997849;28;20105;-94
2021/10/07 04:10:33;;;;;;;0.60;0.60;;;;;;;12.42;95.67;99837.84;4996939;28;20046;-93
2021/10/07 04:12:59;;;;;;;1.23;0.50;;;;;;;12.42;95.07;99835.25;4997774;28;20046;-94
2021/10/07 04:15:26;;;;;;;0.50;0.50;;;;;;;12.51;94.85;99838.06;4996903;28;20441;-91
2021/10/07 04:17:55;;;;;;;0.50;0.50;;;;;;;12.59;92.08;99838.44;4996997;28;20089;-91
2021/10/07 04:20:22;;;;;;;1.30;0.60;;;;;;;12.46;94.56;99837.53;4997017;28;20046;-95
2021/10/07 04:22:49;;;;;;;0.50;0.50;;;;;;;12.30;99.38;99842.06;4996596;28;20049;-94
2021/10/07 04:25:16;;;;;;;2.67;0.60;;;;;;;12.42;96.86;99848.31;4996804;28;20039;-87
2021/10/07 04:27:43;;;;;;;0.60;0.60;;;;;;;12.40;94.96;99844.94;4987544;28;20587;-84
2021/10/07 04:30:10;;;;;;;0.73;0.60;;;;;;;12.46;96.01;99850.59;4988222;28;20038;-83
2021/10/07 04:32:38;;;;;;;1.95;0.50;;;;;;;12.25;100.00;99857.19;4990962;28;20038;-82
2021/10/07 04:35:06;;;;;;;0.60;0.60;;;;;;;12.14;100.00;99854.41;4988507;28;20035;-82
2021/10/07 04:37:32;;;;;;;0.80;0.70;;;;;;;12.15;100.00;99853.50;4985640;28;20074;-84
2021/10/07 04:39:59;;;;;;;0.95;0.60;;;;;;;12.09;100.00;99852.13;4990832;28;20114;-83
2021/10/07 04:42:26;;;;;;;1.85;0.60;;;;;;;12.25;100.00;99844.13;4988565;28;20045;-83
2021/10/07 04:44:53;;;;;;;1.20;0.82;;;;;;;12.10;100.00;99856.41;4988843;28;20041;-83
2021/10/07 04:47:20;;;;;;;4.10;0.93;;;;;;;12.16;100.00;99853.41;4988343;28;20501;-83
2021/10/07 04:49:46;;;;;;;0.82;0.60;;;;;;;12.16;100.00;99865.63;4992576;28;20035;-83
2021/10/07 04:52:13;;;;;;;0.60;0.60;;;;;;;11.96;100.00;99864.25;4993057;28;20042;-83
2021/10/07 04:54:40;;;;;;;4.72;1.17;;;;;;;12.24;100.00;99866.81;4992968;28;20054;-86
2021/10/07 04:57:06;;;;;;;2.22;0.75;;;;;;;12.23;100.00;99866.91;4992309;28;20042;-86
2021/10/07 04:59:33;;;;;;;2.83;1.13;;;;;;;12.28;100.00;99860.47;4993037;28;20489;-83
2021/10/07 05:02:00;;;;;;;3.60;0.80;;;;;;;12.23;100.00;99859.09;4990105;28;20062;-84
2021/10/07 05:04:27;;;;;;;1.10;0.73;;;;;;;12.16;100.00;99869.09;4993582;28;20516;-81
2021/10/07 05:06:53;;;;;;;0.70;0.70;;;;;;;12.17;100.00;99869.91;4991215;28;20050;-79
2021/10/07 05:09:20;;;;;;;1.98;0.70;;;;;;;12.27;100.00;99865.78;4992654;28;20093;-82
2021/10/07 05:11:47;;;;;;;1.35;0.70;;;;;;;12.23;100.00;99861.69;4990909;28;20043;-86
2021/10/07 05:14:15;;;;;;;3.28;0.88;;;;;;;12.16;100.00;99856.03;4986274;28;20129;-85
2021/10/07 05:16:42;;;;;;;4.28;1.08;;;;;;;12.21;100.00;99860.97;4991827;28;20124;-91
2021/10/07 05:19:08;;;;;;;3.40;0.70;;;;;;;12.22;100.00;99860.03;4990130;28;20038;-90
2021/10/07 05:21:35;;;;;;;0.60;0.60;;;;;;;12.33;100.00;99852.34;4989033;28;20046;-95
2021/10/07 05:24:04;;;;;;;1.00;0.60;;;;;;;12.33;100.00;99854.94;4995617;28;20125;-90
2021/10/07 05:26:31;;;;;;;0.65;0.65;;;;;;;12.34;100.00;99856.63;4993632;28;20050;-90
2021/10/07 05:28:58;;;;;;;0.70;0.70;;;;;;;12.39;100.00;99865.00;4994786;28;20039;-92
2021/10/07 05:31:25;;;;;;;6.00;1.20;;;;;;;12.42;100.00;99864.84;5001560;28;20230;-96
2021/10/07 05:33:52;;;;;;;1.38;0.60;;;;;;;12.42;99.79;99867.44;4997800;28;20081;-90
2021/10/07 05:36:19;;;;;;;1.20;0.90;;;;;;;12.44;98.52;99867.34;4987957;28;20108;-89
2021/10/07 05:38:46;;;;;;;1.83;0.73;;;;;;;12.49;98.09;99860.03;4986179;28;20030;-88
2021/10/07 05:41:13;;;;;;;0.65;0.63;;;;;;;12.43;96.92;99849.97;4990322;28;20560;-87
2021/10/07 05:43:39;;;;;;;0.60;0.60;;;;;;;12.40;99.51;99851.00;4989071;28;20047;-88
2021/10/07 05:46:06;;;;;;;0.50;0.50;;;;;;;12.60;97.73;99854.97;4991665;28;20057;-89
2021/10/07 05:48:34;;;;;;;0.93;0.80;;;;;;;12.64;96.16;99850.38;4992113;28;20035;-89
2021/10/07 05:51:01;;;;;;;1.90;0.60;;;;;;;12.63;96.22;99846.09;4991686;28;20047;-88
2021/10/07 05:53:27;;;;;;;1.40;0.60;;;;;;;12.70;96.80;99845.59;4992046;28;20042;-86
2021/10/07 05:55:55;;;;;;;0.70;0.70;;;;;;;12.57;97.38;99842.94;4986714;28;20328;-85
2021/10/07 05:58:21;;;;;;;3.00;0.68;;;;;;;12.49;97.17;99849.59;4984619;28;20097;-86
2021/10/07 06:00:48;;;;;;;0.50;0.50;;;;;;;12.57;96.40;99845.56;4980156;28;20058;-90
2021/10/07 06:03:15;;;;;;;0.88;0.60;;;;;;;12.45;96.59;99846.31;4984600;28;20047;-86
2021/10/07 06:05:42;;;;;;;2.17;0.60;;;;;;;12.45;97.03;99837.63;4988295;28;20046;-88
2021/10/07 06:08:08;;;;;;;0.52;0.43;;;;;;;12.51;96.17;99843.31;4992034;28;20093;-87
2021/10/07 06:11:00;;;;;;;3.63;0.93;;;;;;;12.50;96.39;99841.63;4999420;28;20408;-94
2021/10/07 06:13:27;;;;;;;0.60;0.60;;;;;;;12.58;96.22;99842.00;4998800;28;20543;-96
2021/10/07 06:16:19;;;;;;;0.65;0.65;;;;;;;12.49;96.07;99845.19;5012866;28;20050;-93
2021/10/07 06:18:48;;;;;;;1.13;0.90;;;;;;;12.62;96.39;99844.41;5009217;28;20106;-96
2021/10/07 06:21:15;;;;;;;1.42;0.60;;;;;;;12.63;96.02;99848.72;5006041;28;20042;-96
2021/10/07 06:24:37;;;;;;;0.52;0.52;;;;;;;12.54;97.18;99857.97;4991531;28;20127;-96
2021/10/07 06:27:04;;;;;;;0.98;0.55;;;;;;;12.61;97.45;99854.00;4985032;28;20210;-94
2021/10/07 06:29:31;;;;;;;0.93;0.60;;;;;;;12.63;96.98;99846.09;4994792;28;20031;-92
2021/10/07 06:31:58;;;;;;;0.60;0.60;;;;;;;12.74;95.01;99854.09;4995527;28;20051;-96
2021/10/07 06:34:27;;;;;;;1.75;0.60;;;;;;;12.75;94.81;99850.53;4994931;28;20038;-96
2021/10/07 06:36:53;;;;;;;0.85;0.80;;;;;;;12.64;93.30;99847.78;4991970;28;20030;-95
2021/10/07 06:39:20;;;;;;;1.85;0.70;;;;;;;12.77;98.33;99853.88;4989429;28;20092;-96
2021/10/07 06:41:48;;;;;;;2.03;0.80;;;;;;;12.93;98.38;99851.91;4986460;28;20051;-95
2021/10/07 06:44:16;;;;;;;2.50;0.70;;;;;;;13.31;96.66;99849.38;4985584;28;20133;-95
2021/10/07 06:46:43;;;;;;;0.52;0.52;;;;;;;13.29;94.72;99851.28;5001340;28;20046;-96
2021/10/07 06:49:11;;;;;;;1.65;0.60;;;;;;;13.40;91.21;99845.31;4999101;28;20038;-94
2021/10/07 06:51:38;;;;;;;0.50;0.50;;;;;;;13.46;91.05;99855.38;5001927;28;20062;-96
2021/10/07 06:54:05;;;;;;;2.45;0.70;;;;;;;13.65;90.04;99839.25;4995329;28;20564;-93
2021/10/07 06:56:33;;;;;;;0.82;0.60;;;;;;;13.63;88.59;99834.13;4986219;28;20520;-96
2021/10/07 06:59:01;;;;;;;0.50;0.50;;;;;;;13.73;89.18;99847.41;4993227;28;20049;-94
2021/10/07 07:01:29;;;;;;;1.80;0.60;;;;;;;13.74;86.35;99845.59;4990638;28;20096;-94
2021/10/07 07:03:57;;;;;;;0.63;0.60;;;;;;;13.31;88.01;99851.16;4984510;28;20058;-96
2021/10/07 07:06:28;;;;;;;2.67;0.75;;;;;;;13.70;88.69;99844.16;4998996;28;20599;-92
2021/10/07 07:08:55;;;;;;;0.45;0.45;;;;;;;13.33;88.69;99857.16;4992619;28;20081;-96
2021/10/07 07:11:27;;;;;;;0.70;0.70;;;;;;;13.05;90.25;99855.53;4997805;28;20034;-93
2021/10/07 07:13:54;;;;;;;0.55;0.50;;;;;;;13.34;91.06;99856.22;5002814;28;20053;-94
2021/10/07 07:17:19;;;;;;;0.50;0.50;;;;;;;13.42;91.85;99850.44;5000585;28;20069;-96
2021/10/07 07:19:48;;;;;;;0.40;0.40;;;;;;;14.07;88.72;99852.91;5009823;28;20061;-95
2021/10/07 07:22:16;;;;;;;1.65;0.50;;;;;;;13.99;87.66;99853.44;5000531;28;20030;-94
2021/10/07 07:24:43;;;;;;;1.30;0.60;;;;;;;13.81;83.99;99854.75;4993457;28;20396;-94
2021/10/07 07:27:11;;;;;;;0.60;0.60;;;;;;;13.90;86.13;99856.69;4992999;28;20054;-92
2021/10/07 07:29:38;;;;;;;2.58;0.60;;;;;;;14.09;83.73;99854.47;4993419;28;20092;-91
2021/10/07 07:32:05;;;;;;;0.60;0.60;;;;;;;14.37;81.81;99853.34;4992911;28;20038;-93
2021/10/07 07:34:32;;;;;;;0.63;0.63;;;;;;;14.37;79.45;99853.34;4993082;28;20428;-93
2021/10/07 07:36:59;;;;;;;0.47;0.47;;;;;;;14.14;80.79;99860.22;4991686;28;20047;-90
2021/10/07 07:39:26;;;;;;;2.22;0.50;;;;;;;14.11;80.47;99863.09;4993227;28;20425;-94
2021/10/07 07:41:53;;;;;;;0.80;0.70;;;;;;;14.06;79.79;99862.56;4993157;28;20046;-93
2021/10/07 07:44:21;;;;;;;0.60;0.60;;;;;;;14.19;78.54;99857.28;4995814;28;20062;-94
2021/10/07 07:46:47;;;;;;;0.50;0.50;;;;;;;14.08;77.87;99857.22;4994451;28;20042;-96
2021/10/07 07:49:19;;;;;;;1.75;0.85;;;;;;;14.09;78.67;99864.94;4986533;28;20109;-91
2021/10/07 07:51:45;;;;;;;0.80;0.80;;;;;;;14.03;77.51;99868.00;4993089;28;20046;-87
2021/10/07 07:54:12;;;;;;;1.38;0.82;;;;;;;14.18;75.74;99867.88;4992458;28;20049;-85
2021/10/07 07:56:39;;;;;;;1.40;0.70;;;;;;;14.12;74.84;99867.38;4992051;28;20449;-89
2021/10/07 07:59:08;;;;;;;0.65;0.65;;;;;;;14.15;74.49;99866.31;4992342;28;20050;-87
2021/10/07 08:01:36;;;;;;;0.70;0.70;;;;;;;14.21;73.09;99871.09;4992398;28;20042;-86
2021/10/07 08:04:06;;;;;;;0.85;0.75;;;;;;;14.37;73.81;99865.59;5001976;28;20507;-86
2021/10/07 08:06:34;;;;;;;0.60;0.60;;;;;;;14.22;71.89;99866.69;4992341;28;20042;-87
2021/10/07 08:09:04;;;;;;;2.58;0.73;;;;;;;14.36;70.42;99859.53;4992870;28;20047;-86
2021/10/07 08:11:31;;;;;;;2.53;0.70;;;;;;;14.28;72.76;99855.81;4992044;28;20112;-86
2021/10/07 08:14:00;;;;;;;0.68;0.65;;;;;;;14.27;70.24;99861.97;4992154;28;20046;-87
2021/10/07 08:16:29;;;;;;;2.95;0.80;;;;;;;14.35;70.54;99860.47;4992225;28;20077;-85
2021/10/07 08:18:55;;;;;;;0.60;0.60;;;;;;;14.25;71.76;99867.31;4992022;28;20104;-85
2021/10/07 08:21:22;;;;;;;0.98;0.80;;;;;;;14.31;69.46;99866.06;4990291;28;20097;-88
2021/10/07 08:23:49;;;;;;;1.08;0.73;;;;;;;14.26;68.99;99863.75;4990834;28;20046;-91
2021/10/07 08:26:16;;;;;;;1.08;0.65;;;;;;;14.44;68.42;99866.88;4990103;28;20144;-93
2021/10/07 08:28:43;;;;;;;0.98;0.70;;;;;;;14.33;69.87;99872.03;4988976;28;20096;-92
2021/10/07 08:31:11;;;;;;;1.17;0.70;;;;;;;14.33;68.02;99870.25;4991128;28;20074;-91
2021/10/07 08:33:39;;;;;;;0.70;0.57;;;;;;;14.26;71.39;99883.88;4988721;28;20404;-92
2021/10/07 08:36:06;;;;;;;1.08;0.88;;;;;;;14.31;69.91;99880.00;4990968;28;20048;-90
2021/10/07 08:38:33;;;;;;;4.00;1.95;;;;;;;14.29;72.56;99881.91;4989741;28;20042;-89
2021/10/07 08:41:06;;;;;;;0.75;0.75;;;;;;;14.22;75.73;99891.16;4989927;28;20054;-87
2021/10/07 08:43:33;;;;;;;0.80;0.80;;;;;;;14.15;77.50;99892.50;4989144;28;20038;-88
2021/10/07 08:46:09;;;;;;;0.73;0.70;;;;;;;14.10;78.91;99898.06;4990362;28;20482;-90
2021/10/07 08:48:36;;;;;;;0.90;0.80;;;;;;;14.27;73.49;99893.44;4995153;28;20031;-90
2021/10/07 08:51:03;;;;;;;4.03;0.85;;;;;;;14.53;75.61;99900.31;4996659;28;20401;-89
2021/10/07 08:53:30;;;;;;;3.88;1.60;;;;;;;14.60;76.44;99893.69;4995197;28;20039;-91
2021/10/07 08:55:57;;;;;;;5.05;1.30;;;;;;;14.36;84.03;99903.28;4994738;28;20042;-90
2021/10/07 08:58:23;;;;;;;11.45;3.40;;;;;;;14.23;86.25;99911.19;4991527;28;20043;-90
2021/10/07 09:00:50;;;;;;;1.83;1.30;;;;;;;14.04;88.69;99909.00;4994972;28;20042;-91
2021/10/07 09:03:22;;;;;;;4.93;1.10;;;;;;;13.96;92.70;99913.94;4995600;28;20105;-94
2021/10/07 09:06:07;;;;;;;1.85;1.23;;;;;;;13.99;92.40;99920.75;4996008;28;20093;-91
2021/10/07 09:08:41;;;;;;;;;;;;;;;14.08;89.70;99913.09;4997288;28;20404;-90
2021/10/07 09:11:08;;;;;;;6.07;1.42;;;;;;;14.52;88.72;99909.13;4997590;28;19922;-90
2021/10/07 09:13:35;;;;;;;4.80;1.10;;;;;;;14.75;87.83;99904.00;4997417;28;20038;-91
2021/10/07 09:16:02;;;;;;;5.95;0.98;;;;;;;14.75;87.33;99904.84;4995262;28;20441;-92
2021/10/07 09:18:31;;;;;;;3.83;2.03;;;;;;;14.87;86.40;99903.13;4993263;28;20049;-94
2021/10/07 09:20:59;;;;;;;4.47;2.08;;;;;;;14.91;86.81;99899.31;4995203;28;20047;-91
2021/10/07 09:23:34;;;;;;;4.50;2.20;;;;;;;14.91;85.27;99901.94;4994610;28;20050;-89
2021/10/07 09:26:08;;;;;;;4.55;1.65;;;;;;;14.76;87.03;99897.84;4995122;28;20046;-91
2021/10/07 09:28:57;;;;;;;6.97;1.88;;;;;;;14.70;89.71;99908.75;4995380;28;20057;-94
2021/10/07 09:31:27;;;;;;;4.45;1.40;;;;;;;14.61;90.23;99908.47;4986482;28;20039;-93
2021/10/07 09:33:58;;;;;;;4.90;1.65;;;;;;;14.57;89.96;99906.19;4988014;28;20072;-93
2021/10/07 09:36:28;;;;;;;8.80;2.38;;;;;;;14.47;91.41;99916.47;4983461;28;20093;-91
2021/10/07 09:38:55;;;;;;;4.72;1.88;;;;;;;14.32;93.55;99909.66;4992566;28;20050;-91
2021/10/07 09:41:32;;;;;;;3.65;1.80;;;;;;;14.30;94.53;99916.81;4981166;28;20047;-90
2021/10/07 09:44:06;;;;;;;6.82;2.40;;;;;;;14.35;94.50;99912.94;4997012;28;20047;-89
2021/10/07 09:46:49;;;;;;;5.07;2.17;;;;;;;14.73;91.17;99903.28;5013963;28;20074;-90
2021/10/07 09:49:19;;;;;;;4.55;1.83;;;;;;;14.52;92.44;99905.66;4996120;28;20042;-95
2021/10/07 09:51:47;;;;;;;2.97;1.65;;;;;;;14.93;90.79;99910.53;4994239;28;20109;-94
2021/10/07 09:54:19;;;;;;;9.40;2.20;;;;;;;15.07;89.70;99902.47;5002806;28;20042;-95
2021/10/07 09:56:58;;;;;;;5.93;2.58;;;;;;;15.06;88.47;99900.81;4988474;28;20085;-92
2021/10/07 09:59:26;;;;;;;2.72;2.00;;;;;;;14.64;91.75;99905.63;4995433;28;20042;-95
2021/10/07 10:01:55;;;;;;;4.47;2.40;;;;;;;14.65;90.49;99904.69;4992979;28;20042;-91
2021/10/07 10:04:25;;;;;;;5.72;2.65;;;;;;;14.80;89.34;99904.50;4995536;28;20076;-94
2021/10/07 10:06:53;;;;;;;6.68;2.25;;;;;;;14.80;90.59;99904.50;4993717;28;20355;-87
2021/10/07 10:09:24;;;;;;;5.32;2.50;;;;;;;14.96;88.94;99905.06;4996358;28;20046;-96
2021/10/07 10:11:52;;;;;;;8.85;2.65;;;;;;;14.93;88.42;99902.66;5000451;28;20397;-93
2021/10/07 10:14:22;;;;;;;6.90;2.83;;;;;;;15.16;88.74;99907.03;4994736;28;20044;-94
2021/10/07 10:16:51;;;;;;;2.50;2.13;;;;;;;15.42;86.71;99901.63;4999253;28;20050;-92
2021/10/07 10:19:20;;;;;;;5.57;1.80;;;;;;;15.72;84.71;99906.41;4993447;28;20507;-93
2021/10/07 10:21:47;;;;;;;3.47;1.80;;;;;;;15.24;86.83;99914.38;4989156;28;20038;-90
2021/10/07 10:24:16;;;;;;;1.80;1.48;;;;;;;15.41;85.28;99908.69;4990650;28;20035;-95
2021/10/07 10:27:01;;;;;;;5.78;1.52;;;;;;;15.64;83.55;99906.13;4996083;28;20041;-94
2021/10/07 10:29:33;;;;;;;5.57;2.25;;;;;;;15.96;83.76;99911.53;4988241;28;20042;-90
2021/10/07 10:32:03;;;;;;;4.38;2.00;;;;;;;15.67;83.20;99914.63;4987379;28;20050;-90
2021/10/07 10:34:42;;;;;;;1.35;0.82;;;;;;;15.35;73.63;99919.66;4992529;28;20073;-89
2021/10/07 10:37:10;;;;;;;1.35;0.80;;;;;;;15.68;71.55;99918.91;4994453;28;20410;-94
2021/10/07 10:39:39;;;;;;;3.90;1.10;;;;;;;15.85;73.06;99911.53;4991434;28;20050;-91
2021/10/07 10:42:15;;;;;;;2.72;1.38;;;;;;;15.64;76.53;99925.34;4992178;28;20038;-93
2021/10/07 10:44:51;;;;;;;1.45;1.00;;;;;;;15.88;68.54;99916.56;4993048;28;20065;-92
2021/10/07 10:47:20;;;;;;;4.45;1.02;;;;;;;16.11;69.65;99910.34;4994488;28;20057;-88
2021/10/07 10:50:04;;;;;;;6.35;1.25;;;;;;;16.28;66.85;99905.56;4995978;28;20038;-92
2021/10/07 10:52:34;;;;;;;0.80;0.80;;;;;;;16.19;71.56;99907.97;4991564;28;20567;-94
2021/10/07 10:55:27;;;;;;;1.17;0.70;;;;;;;15.95;64.83;99909.88;4992322;28;20125;-94
2021/10/07 10:58:06;;;;;;;1.38;0.80;;;;;;;15.97;64.39;99914.03;4984917;28;20049;-93
2021/10/07 11:00:34;;;;;;;2.88;0.90;;;;;;;15.54;66.70;99915.63;4988058;28;20126;-91
2021/10/07 11:03:10;;;;;;;0.98;0.88;;;;;;;15.50;69.50;99927.31;4991128;28;20121;-90
2021/10/07 11:05:57;;;;;;;1.95;1.10;;;;;;;15.75;68.72;99923.69;4992465;28;20047;-87
2021/10/07 11:08:25;;;;;;;1.08;0.90;;;;;;;15.42;69.89;99917.41;4993129;28;20440;-90
2021/10/07 11:11:05;;;;;;;1.33;0.88;;;;;;;16.11;63.88;99923.50;4988186;28;20053;-88
2021/10/07 11:13:34;;;;;;;1.00;0.90;;;;;;;16.00;64.66;99923.50;4992581;28;20044;-89
2021/10/07 11:16:05;;;;;;;9.43;1.13;;;;;;;16.30;65.88;99924.66;4993511;28;20047;-89
2021/10/07 11:18:35;;;;;;;3.42;1.25;;;;;;;16.92;65.22;99926.72;4993704;28;20050;-88
2021/10/07 11:21:16;;;;;;;3.92;1.17;;;;;;;16.75;62.44;99930.72;4990647;28;20081;-90
2021/10/07 11:23:50;;;;;;;2.58;1.00;;;;;;;16.46;63.12;99931.25;4992143;28;20441;-88
2021/10/07 11:26:19;;;;;;;2.08;0.75;;;;;;;16.60;62.81;99937.19;4987715;28;20129;-89
2021/10/07 11:28:48;;;;;;;3.85;1.10;;;;;;;16.77;60.85;99932.25;4991637;28;20493;-92
2021/10/07 11:31:17;;;;;;;0.88;0.80;;;;;;;17.04;60.38;99931.00;4989607;28;20501;-87
2021/10/07 11:33:52;;;;;;;1.52;1.05;;;;;;;17.51;58.89;99929.69;4990607;28;20038;-88
2021/10/07 11:36:25;;;;;;;2.03;1.30;;;;;;;17.89;58.98;99922.16;4988117;28;20445;-91
2021/10/07 11:38:54;;;;;;;0.83;0.83;;;;;;;17.67;60.96;99917.84;4991082;28;20112;-89
2021/10/07 11:41:28;;;;;;;2.78;1.25;;;;;;;17.28;62.43;99928.16;4989410;28;20404;-86
2021/10/07 11:43:58;;;;;;;2.53;0.95;;;;;;;16.71;65.62;99919.59;4991314;28;20049;-86
2021/10/07 11:46:25;;;;;;;4.57;2.30;;;;;;;17.13;65.01;99918.88;4986190;28;20485;-86